Time;durP1;ratioP1;P1;durP2;ratioP2;P2;SDS_P1;SDS_P2;PMS_P1;PMS_P2;Temp;Humidity;BMP_temperature;BMP_pressure;BME280_temperature;BME280_humidity;BME280_pressure;Samples;Min_cycle;Max_cycle;Signal;HPM_P1;HPM_P2
2021/06/27 00:01:30;;;;;;;8.35;6.55;;;19.20;87.60;;;;;;5012444;28;20046;-79
2021/06/27 00:03:56;;;;;;;8.20;6.47;;;19.20;86.90;;;;;;5009171;28;20069;-78
2021/06/27 00:06:22;;;;;;;8.93;7.18;;;19.10;87.20;;;;;;5000447;28;20049;-79
2021/06/27 00:08:48;;;;;;;9.77;6.65;;;19.10;87.90;;;;;;5011598;28;20041;-79
2021/06/27 00:11:15;;;;;;;10.45;7.35;;;19.00;87.70;;;;;;5010656;28;20111;-78
2021/06/27 00:13:43;;;;;;;9.82;6.70;;;19.00;87.70;;;;;;5005000;28;20077;-79
2021/06/27 00:16:10;;;;;;;8.52;6.82;;;18.90;87.80;;;;;;5036292;28;20037;-79
2021/06/27 00:18:36;;;;;;;7.90;6.60;;;18.90;88.00;;;;;;5007587;28;20069;-79
2021/06/27 00:21:06;;;;;;;9.23;6.75;;;18.80;88.40;;;;;;5002181;28;20394;-79
2021/06/27 00:23:36;;;;;;;9.80;7.30;;;18.80;89.00;;;;;;5005299;28;20389;-79
2021/06/27 00:26:06;;;;;;;9.25;7.50;;;18.70;89.00;;;;;;5016687;28;20420;-79
2021/06/27 00:28:31;;;;;;;9.43;7.05;;;18.70;89.60;;;;;;5007823;28;20188;-79
2021/06/27 00:30:57;;;;;;;9.20;7.22;;;18.60;90.00;;;;;;5031236;28;20116;-79
2021/06/27 00:33:23;;;;;;;8.25;6.47;;;18.60;90.00;;;;;;5007459;28;20061;-79
2021/06/27 00:35:50;;;;;;;7.90;7.00;;;18.50;90.10;;;;;;5046277;28;20035;-79
2021/06/27 00:38:15;;;;;;;9.30;7.07;;;18.50;90.30;;;;;;5014537;28;20056;-81
2021/06/27 00:40:42;;;;;;;9.60;7.72;;;18.40;90.20;;;;;;5016585;28;20046;-78
2021/06/27 00:43:07;;;;;;;9.73;7.93;;;18.40;90.20;;;;;;5020149;28;20033;-78
2021/06/27 00:45:34;;;;;;;9.02;7.85;;;18.30;90.30;;;;;;5014870;28;20356;-79
2021/06/27 00:48:00;;;;;;;8.40;6.88;;;18.30;90.30;;;;;;5006955;28;20049;-78
2021/06/27 00:50:29;;;;;;;8.18;7.15;;;18.20;90.40;;;;;;4997598;28;20038;-78
2021/06/27 00:52:56;;;;;;;9.95;7.93;;;18.20;90.50;;;;;;5014534;28;20030;-78
2021/06/27 00:55:22;;;;;;;10.07;7.68;;;18.10;90.70;;;;;;5005772;28;20081;-78
2021/06/27 00:57:49;;;;;;;10.32;8.27;;;18.10;90.90;;;;;;5000918;28;20363;-78
2021/06/27 01:00:20;;;;;;;9.25;7.85;;;18.10;91.10;;;;;;5005712;28;20055;-78
2021/06/27 01:02:46;;;;;;;9.65;7.90;;;18.00;91.00;;;;;;5012647;28;20052;-78
2021/06/27 01:05:17;;;;;;;8.43;6.97;;;18.00;91.20;;;;;;5009714;28;20042;-78
2021/06/27 01:07:43;;;;;;;9.52;7.80;;;17.90;91.20;;;;;;5006104;28;20112;-79
2021/06/27 01:10:09;;;;;;;8.68;7.25;;;17.90;91.40;;;;;;5027091;28;20046;-77
2021/06/27 01:12:35;;;;;;;11.60;7.43;;;17.90;91.70;;;;;;5008312;28;20496;-78
2021/06/27 01:15:01;;;;;;;9.73;7.72;;;17.80;91.50;;;;;;4999193;28;20045;-77
2021/06/27 01:17:27;;;;;;;8.43;7.43;;;17.80;91.60;;;;;;5006852;28;20034;-78
2021/06/27 01:19:53;;;;;;;9.38;7.38;;;17.80;91.50;;;;;;5007809;28;20045;-78
2021/06/27 01:22:18;;;;;;;11.07;7.00;;;17.70;91.50;;;;;;5000294;28;20429;-78
2021/06/27 01:24:44;;;;;;;16.50;7.75;;;17.70;91.50;;;;;;5010001;28;20038;-78
2021/06/27 01:27:09;;;;;;;13.20;7.90;;;17.70;91.60;;;;;;5009619;28;20135;-78
2021/06/27 01:29:35;;;;;;;8.93;8.02;;;17.70;91.80;;;;;;5014421;28;20042;-78
2021/06/27 01:32:00;;;;;;;9.73;7.63;;;17.70;91.90;;;;;;5010368;28;20112;-78
2021/06/27 01:34:26;;;;;;;9.38;7.28;;;17.60;92.00;;;;;;5026002;28;20052;-78
2021/06/27 01:36:52;;;;;;;9.27;7.68;;;17.60;92.10;;;;;;5004130;28;20042;-78
2021/06/27 01:39:17;;;;;;;11.23;8.27;;;17.60;92.20;;;;;;5002966;28;20042;-77
2021/06/27 01:41:51;;;;;;;12.65;7.75;;;17.60;92.40;;;;;;5014914;28;20496;-78
2021/06/27 01:44:17;;;;;;;15.50;8.25;;;17.50;92.30;;;;;;5013805;28;20046;-78
2021/06/27 01:46:43;;;;;;;8.65;7.03;;;17.50;92.30;;;;;;5013095;28;20044;-77
2021/06/27 01:49:10;;;;;;;9.70;7.57;;;17.50;92.40;;;;;;5012652;28;20106;-78
2021/06/27 01:51:36;;;;;;;9.10;7.50;;;17.50;92.50;;;;;;5033653;28;20046;-77
2021/06/27 01:54:02;;;;;;;9.70;7.38;;;17.50;92.50;;;;;;5016069;28;20044;-78
2021/06/27 01:56:27;;;;;;;7.78;6.70;;;17.50;92.60;;;;;;5018256;28;20041;-78
2021/06/27 01:58:53;;;;;;;9.68;7.70;;;17.50;92.60;;;;;;5009878;28;20049;-78
2021/06/27 02:01:29;;;;;;;11.63;7.97;;;17.40;92.50;;;;;;5009689;28;20037;-78
2021/06/27 02:03:55;;;;;;;8.82;7.07;;;17.40;92.50;;;;;;5014473;28;20045;-78
2021/06/27 02:06:22;;;;;;;9.13;7.45;;;17.40;92.70;;;;;;5015599;28;20048;-78
2021/06/27 02:08:49;;;;;;;9.43;7.28;;;17.40;92.80;;;;;;5012539;28;20108;-78
2021/06/27 02:11:17;;;;;;;9.38;7.40;;;17.40;92.80;;;;;;4997743;28;20491;-78
2021/06/27 02:13:44;;;;;;;10.93;8.25;;;17.30;92.80;;;;;;5009077;28;20042;-78
2021/06/27 02:16:10;;;;;;;11.93;8.82;;;17.30;92.80;;;;;;5007627;28;20038;-78
2021/06/27 02:18:38;;;;;;;10.23;7.95;;;17.30;92.70;;;;;;5013912;28;20084;-77
2021/06/27 02:21:07;;;;;;;13.38;8.20;;;17.30;92.80;;;;;;5018564;28;20064;-78
2021/06/27 02:23:33;;;;;;;8.85;7.20;;;17.20;92.70;;;;;;5039492;28;20417;-78
2021/06/27 02:25:59;;;;;;;12.70;7.28;;;17.20;92.80;;;;;;5011427;28;20042;-78
2021/06/27 02:28:26;;;;;;;8.98;7.43;;;17.20;92.90;;;;;;5018821;28;20069;-78
2021/06/27 02:30:52;;;;;;;10.23;7.78;;;17.20;93.00;;;;;;5017812;28;20030;-78
2021/06/27 02:33:18;;;;;;;10.13;8.00;;;17.20;93.00;;;;;;5024319;28;20037;-79
2021/06/27 02:35:45;;;;;;;8.15;7.18;;;17.20;93.00;;;;;;5015638;28;20049;-78
2021/06/27 02:38:10;;;;;;;11.02;7.82;;;17.20;93.00;;;;;;5017324;28;20409;-78
2021/06/27 02:40:36;;;;;;;9.15;8.20;;;17.10;93.00;;;;;;5008483;28;20053;-78
2021/06/27 02:43:02;;;;;;;10.93;7.63;;;17.10;93.20;;;;;;5013050;28;20033;-78
2021/06/27 02:45:27;;;;;;;9.35;7.57;;;17.10;93.20;;;;;;5013392;28;20042;-78
2021/06/27 02:47:53;;;;;;;8.85;7.20;;;17.10;93.20;;;;;;5027915;28;20361;-78
2021/06/27 02:50:18;;;;;;;10.30;6.90;;;17.10;93.20;;;;;;5011168;28;20381;-78
2021/06/27 02:52:44;;;;;;;10.75;7.68;;;17.10;93.30;;;;;;5011978;28;20042;-78
2021/06/27 02:55:12;;;;;;;8.90;7.82;;;17.10;93.30;;;;;;5010125;28;20576;-78
2021/06/27 02:57:39;;;;;;;9.57;7.20;;;17.10;93.50;;;;;;5017073;28;20049;-78
2021/06/27 03:00:09;;;;;;;7.93;6.55;;;17.00;93.50;;;;;;5046125;28;20107;-78
2021/06/27 03:02:34;;;;;;;9.02;6.82;;;17.00;93.40;;;;;;5010080;28;20322;-78
2021/06/27 03:05:00;;;;;;;7.25;6.13;;;17.00;93.40;;;;;;5001873;28;20038;-78
2021/06/27 03:07:25;;;;;;;7.22;6.50;;;17.00;93.40;;;;;;5010326;28;20065;-78
2021/06/27 03:09:51;;;;;;;11.10;6.88;;;17.00;93.30;;;;;;5018495;28;20390;-78
2021/06/27 03:12:16;;;;;;;9.35;7.63;;;17.00;93.40;;;;;;5031864;28;20038;-78
2021/06/27 03:14:42;;;;;;;10.57;8.30;;;17.00;93.50;;;;;;5001121;28;20034;-78
2021/06/27 03:17:08;;;;;;;10.32;7.50;;;16.90;93.50;;;;;;5015345;28;20033;-78
2021/06/27 03:19:33;;;;;;;7.68;6.88;;;16.90;93.60;;;;;;5010317;28;20397;-78
2021/06/27 03:21:59;;;;;;;9.20;7.13;;;16.90;93.50;;;;;;5014521;28;20038;-77
2021/06/27 03:24:24;;;;;;;8.63;7.15;;;16.90;93.40;;;;;;5008969;28;20199;-78
2021/06/27 03:26:50;;;;;;;8.85;7.57;;;16.90;93.40;;;;;;5042997;28;20053;-78
2021/06/27 03:29:15;;;;;;;10.05;8.05;;;16.80;93.40;;;;;;5012384;28;20073;-78
2021/06/27 03:31:41;;;;;;;8.85;7.47;;;16.80;93.50;;;;;;5046721;28;20298;-78
2021/06/27 03:34:06;;;;;;;9.32;7.30;;;16.80;93.70;;;;;;5009643;28;20176;-78
2021/06/27 03:36:32;;;;;;;8.68;7.28;;;16.80;93.90;;;;;;5007273;28;20046;-78
2021/06/27 03:39:03;;;;;;;8.70;7.15;;;16.80;94.00;;;;;;5002741;28;20135;-78
2021/06/27 03:41:33;;;;;;;6.17;5.13;;;16.80;94.30;;;;;;5044196;28;20546;-78
2021/06/27 03:43:59;;;;;;;8.85;6.55;;;16.80;94.10;;;;;;5007094;28;20348;-78
2021/06/27 03:46:26;;;;;;;8.95;7.13;;;16.80;94.00;;;;;;5011897;28;20057;-78
2021/06/27 03:48:52;;;;;;;10.18;7.60;;;16.80;94.10;;;;;;5003496;28;20038;-79
2021/06/27 03:51:17;;;;;;;8.52;6.15;;;16.70;94.10;;;;;;5004308;28;20309;-78
2021/06/27 03:53:43;;;;;;;9.55;7.40;;;16.70;94.30;;;;;;5005884;28;20046;-78
2021/06/27 03:56:09;;;;;;;9.43;7.65;;;16.80;94.30;;;;;;5007671;28;20041;-78
2021/06/27 03:58:34;;;;;;;12.27;7.32;;;16.80;94.40;;;;;;5009652;28;20074;-79
2021/06/27 04:01:00;;;;;;;8.80;7.78;;;16.80;94.50;;;;;;5037318;28;20046;-79
2021/06/27 04:03:25;;;;;;;8.45;6.53;;;16.80;94.40;;;;;;5014183;28;20049;-80
2021/06/27 04:05:51;;;;;;;7.32;6.45;;;16.80;94.50;;;;;;5008309;28;20073;-78
2021/06/27 04:08:16;;;;;;;7.45;6.65;;;16.90;94.50;;;;;;5015969;28;20103;-79
2021/06/27 04:10:42;;;;;;;9.25;6.85;;;16.90;94.40;;;;;;5011193;28;20037;-78
2021/06/27 04:13:07;;;;;;;7.90;6.38;;;16.90;94.40;;;;;;5008963;28;20056;-78
2021/06/27 04:15:33;;;;;;;8.68;7.55;;;16.90;94.20;;;;;;5004974;28;20124;-78
2021/06/27 04:17:58;;;;;;;8.50;7.20;;;17.00;94.20;;;;;;5012522;28;20080;-79
2021/06/27 04:20:24;;;;;;;16.80;7.57;;;17.00;94.20;;;;;;5020745;28;20222;-80
2021/06/27 04:22:50;;;;;;;7.05;5.88;;;17.00;94.10;;;;;;5007268;28;20037;-79
2021/06/27 04:25:15;;;;;;;9.77;6.80;;;17.10;94.10;;;;;;5011705;28;20183;-79
2021/06/27 04:27:40;;;;;;;8.90;6.75;;;17.10;94.10;;;;;;5015234;28;20038;-79
2021/06/27 04:30:08;;;;;;;8.20;6.57;;;17.20;94.20;;;;;;5014622;28;20123;-79
2021/06/27 04:32:34;;;;;;;7.03;6.32;;;17.20;94.10;;;;;;5005122;28;20499;-79
2021/06/27 04:35:00;;;;;;;9.02;6.65;;;17.20;94.10;;;;;;5003522;28;20046;-79
2021/06/27 04:37:25;;;;;;;10.23;6.45;;;17.30;94.10;;;;;;5031222;28;20038;-79
2021/06/27 04:39:52;;;;;;;7.93;6.30;;;17.30;94.00;;;;;;5005881;28;20471;-79
2021/06/27 04:42:17;;;;;;;7.00;5.63;;;17.40;93.80;;;;;;5008195;28;20042;-79
2021/06/27 04:44:43;;;;;;;7.65;6.63;;;17.40;93.70;;;;;;5006445;28;20424;-79
2021/06/27 04:47:09;;;;;;;10.20;6.65;;;17.50;93.70;;;;;;5007148;28;20104;-79
2021/06/27 04:49:38;;;;;;;7.70;6.85;;;17.50;93.70;;;;;;5004494;28;20041;-79
2021/06/27 04:52:05;;;;;;;8.05;6.88;;;17.50;93.60;;;;;;5001866;28;20057;-79
2021/06/27 04:54:30;;;;;;;9.38;5.97;;;17.60;93.50;;;;;;5014300;28;20062;-79
2021/06/27 04:56:56;;;;;;;7.43;6.07;;;17.60;93.30;;;;;;5047851;28;20072;-79
2021/06/27 04:59:21;;;;;;;7.63;6.35;;;17.70;93.30;;;;;;5000823;28;20128;-80
2021/06/27 05:01:47;;;;;;;9.55;5.93;;;17.70;93.30;;;;;;5010296;28;20430;-80
2021/06/27 05:04:12;;;;;;;7.13;5.72;;;17.80;93.20;;;;;;5028937;28;20057;-80
2021/06/27 05:06:38;;;;;;;6.13;5.53;;;17.80;93.00;;;;;;5014224;28;20129;-79
2021/06/27 05:09:03;;;;;;;7.82;5.93;;;17.90;92.40;;;;;;5015915;28;20033;-80
2021/06/27 05:11:29;;;;;;;7.47;6.35;;;17.90;92.30;;;;;;5002617;28;20144;-79
2021/06/27 05:13:54;;;;;;;7.47;5.53;;;18.00;91.40;;;;;;5008455;28;20045;-79
2021/06/27 05:16:20;;;;;;;7.45;5.55;;;18.00;91.40;;;;;;5013076;28;20406;-80
2021/06/27 05:18:45;;;;;;;10.52;5.60;;;18.10;91.50;;;;;;5015850;28;20125;-80
2021/06/27 05:21:11;;;;;;;9.32;5.43;;;18.10;91.30;;;;;;5016089;28;20060;-79
2021/06/27 05:23:36;;;;;;;5.40;4.80;;;18.20;90.70;;;;;;5005786;28;20053;-79
2021/06/27 05:26:02;;;;;;;6.28;5.18;;;18.20;90.40;;;;;;5043179;28;20053;-79
2021/06/27 05:28:30;;;;;;;7.10;5.50;;;18.30;90.50;;;;;;5025924;28;20068;-78
2021/06/27 05:30:55;;;;;;;5.50;5.00;;;18.40;90.10;;;;;;5014554;28;20127;-78
2021/06/27 05:33:21;;;;;;;8.13;5.43;;;18.40;90.10;;;;;;5045625;28;20414;-79
2021/06/27 05:35:46;;;;;;;6.13;4.72;;;18.50;90.30;;;;;;5045705;28;20033;-79
2021/06/27 05:38:12;;;;;;;6.10;5.20;;;18.50;90.30;;;;;;5032306;28;20050;-79
2021/06/27 05:40:39;;;;;;;5.65;5.07;;;18.60;90.30;;;;;;5032426;28;20460;-79
2021/06/27 05:43:05;;;;;;;5.95;4.65;;;18.60;90.40;;;;;;5018285;28;20128;-79
2021/06/27 05:45:30;;;;;;;5.70;5.00;;;18.70;89.80;;;;;;5017471;28;20329;-79
2021/06/27 05:47:56;;;;;;;5.93;4.82;;;18.80;90.10;;;;;;5014570;28;20085;-80
2021/06/27 05:50:22;;;;;;;5.85;4.85;;;18.80;90.30;;;;;;5010666;28;20041;-79
2021/06/27 05:52:47;;;;;;;8.90;5.68;;;18.90;90.30;;;;;;5006684;28;20062;-79
2021/06/27 05:55:14;;;;;;;6.38;5.18;;;19.00;89.50;;;;;;5001137;28;20046;-80
2021/06/27 05:57:40;;;;;;;5.53;4.47;;;19.10;89.40;;;;;;5007803;28;20096;-79
2021/06/27 06:00:06;;;;;;;8.15;5.22;;;19.20;89.50;;;;;;5012609;28;20298;-81
2021/06/27 06:02:32;;;;;;;7.45;5.40;;;19.20;90.10;;;;;;5009575;28;20046;-80
2021/06/27 06:04:57;;;;;;;5.60;4.90;;;19.20;89.90;;;;;;5006926;28;20104;-80
2021/06/27 06:07:23;;;;;;;6.18;4.70;;;19.30;88.50;;;;;;5008645;28;20049;-81
2021/06/27 06:09:48;;;;;;;6.28;5.68;;;19.40;89.60;;;;;;5023741;28;20033;-80
2021/06/27 06:12:14;;;;;;;5.97;5.38;;;19.50;90.00;;;;;;5018461;28;20076;-80
2021/06/27 06:14:39;;;;;;;5.53;5.03;;;19.60;88.90;;;;;;5006055;28;20053;-81
2021/06/27 06:17:05;;;;;;;5.00;4.43;;;19.60;88.30;;;;;;5013382;28;20083;-78
2021/06/27 06:19:31;;;;;;;6.15;5.45;;;19.80;87.70;;;;;;5014407;28;20038;-79
2021/06/27 06:21:57;;;;;;;6.15;5.35;;;19.90;85.60;;;;;;5012591;28;20065;-82
2021/06/27 06:24:23;;;;;;;6.80;5.68;;;20.10;86.20;;;;;;5009445;28;20068;-81
2021/06/27 06:26:48;;;;;;;5.90;4.93;;;20.20;86.70;;;;;;5012785;28;20054;-80
2021/06/27 06:29:14;;;;;;;5.30;4.78;;;20.40;85.10;;;;;;5013977;28;20052;-81
2021/06/27 06:31:39;;;;;;;5.40;4.90;;;20.60;84.90;;;;;;5007377;28;20117;-81
2021/06/27 06:34:05;;;;;;;7.97;4.60;;;20.70;85.40;;;;;;5011448;28;20058;-80
2021/06/27 06:36:31;;;;;;;5.10;4.60;;;20.80;86.00;;;;;;5009316;28;20041;-80
2021/06/27 06:38:56;;;;;;;5.47;4.85;;;20.90;84.70;;;;;;5004529;28;20054;-80
2021/06/27 06:41:22;;;;;;;5.43;4.47;;;21.00;83.80;;;;;;5036189;28;20073;-81
2021/06/27 06:43:48;;;;;;;5.20;4.70;;;21.10;84.80;;;;;;5005808;28;20101;-79
2021/06/27 06:46:14;;;;;;;5.95;4.68;;;21.20;83.40;;;;;;5026377;28;20080;-80
2021/06/27 06:48:39;;;;;;;6.97;5.40;;;21.30;84.70;;;;;;5010790;28;20037;-79
2021/06/27 06:51:05;;;;;;;5.28;4.50;;;21.40;84.50;;;;;;5014570;28;20142;-79
2021/06/27 06:53:31;;;;;;;6.88;5.38;;;21.40;84.70;;;;;;5005435;28;20075;-79
2021/06/27 06:55:59;;;;;;;5.40;4.65;;;21.50;84.80;;;;;;5035277;28;20034;-79
2021/06/27 06:58:29;;;;;;;7.55;5.03;;;21.60;83.50;;;;;;5002597;28;20129;-80
2021/06/27 07:01:01;;;;;;;5.47;4.60;;;21.80;82.30;;;;;;5003676;28;20541;-81
2021/06/27 07:03:27;;;;;;;7.90;5.20;;;22.00;82.60;;;;;;5016743;28;20139;-80
2021/06/27 07:05:53;;;;;;;5.63;4.95;;;22.00;82.50;;;;;;5016494;28;20125;-79
2021/06/27 07:08:20;;;;;;;6.32;4.60;;;22.10;81.80;;;;;;5014848;28;20038;-82
2021/06/27 07:10:45;;;;;;;5.47;4.90;;;22.30;81.50;;;;;;5014218;28;20088;-79
2021/06/27 07:13:11;;;;;;;5.18;4.30;;;22.50;81.50;;;;;;5017195;28;20356;-80
2021/06/27 07:15:36;;;;;;;4.93;4.43;;;22.60;79.40;;;;;;5009115;28;20378;-80
2021/06/27 07:18:02;;;;;;;6.10;4.72;;;22.80;79.10;;;;;;5015002;28;20033;-89
2021/06/27 07:20:27;;;;;;;6.65;4.18;;;22.80;78.40;;;;;;5020067;28;20048;-90
2021/06/27 07:22:53;;;;;;;10.18;4.15;;;22.90;78.20;;;;;;5007118;28;20046;-83
2021/06/27 07:25:18;;;;;;;5.32;4.38;;;23.00;78.60;;;;;;5039041;28;20034;-83
2021/06/27 07:27:44;;;;;;;5.18;4.05;;;23.20;78.10;;;;;;5000917;28;20061;-84
2021/06/27 07:30:10;;;;;;;4.18;3.70;;;23.30;76.90;;;;;;5015621;28;20042;-82
2021/06/27 07:32:36;;;;;;;4.50;4.10;;;23.50;76.00;;;;;;4999208;28;20085;-85
2021/06/27 07:35:02;;;;;;;6.57;3.75;;;23.60;75.70;;;;;;5019515;28;20089;-83
2021/06/27 07:37:28;;;;;;;4.30;3.90;;;23.70;77.20;;;;;;5018514;28;20030;-85
2021/06/27 07:39:53;;;;;;;5.75;3.83;;;23.90;75.70;;;;;;5012959;28;20140;-83
2021/06/27 07:42:19;;;;;;;5.50;3.65;;;24.00;76.20;;;;;;5013399;28;20278;-84
2021/06/27 07:44:44;;;;;;;4.35;3.95;;;24.20;76.40;;;;;;5032632;28;20668;-83
2021/06/27 07:47:10;;;;;;;4.75;3.75;;;24.30;76.10;;;;;;5013696;28;20049;-82
2021/06/27 07:49:35;;;;;;;4.38;3.05;;;24.50;71.40;;;;;;5005161;28;20042;-82
2021/06/27 07:52:01;;;;;;;4.10;3.08;;;24.60;70.20;;;;;;5012717;28;20092;-83
2021/06/27 07:54:27;;;;;;;3.40;3.08;;;24.70;68.30;;;;;;5011139;28;20448;-83
2021/06/27 07:56:52;;;;;;;3.10;2.80;;;24.80;70.90;;;;;;5020657;28;20042;-83
2021/06/27 07:59:17;;;;;;;5.68;3.70;;;24.90;71.90;;;;;;5021604;28;20046;-82
2021/06/27 08:01:43;;;;;;;3.83;3.15;;;25.00;71.10;;;;;;5017878;28;20052;-84
2021/06/27 08:04:09;;;;;;;3.83;3.28;;;25.20;72.20;;;;;;5048769;28;20393;-83
2021/06/27 08:06:34;;;;;;;6.97;2.90;;;25.30;71.40;;;;;;5048933;28;20037;-84
2021/06/27 08:09:00;;;;;;;3.60;3.30;;;25.30;72.40;;;;;;5015707;28;20601;-84
2021/06/27 08:11:25;;;;;;;5.20;3.92;;;25.40;71.20;;;;;;5016534;28;20065;-85
2021/06/27 08:13:51;;;;;;;4.15;2.60;;;25.60;71.60;;;;;;5017682;28;20038;-84
2021/06/27 08:16:16;;;;;;;3.08;2.63;;;25.80;68.40;;;;;;5017661;28;20073;-83
2021/06/27 08:18:42;;;;;;;2.63;2.05;;;25.90;69.70;;;;;;5017280;28;20042;-86
2021/06/27 08:21:08;;;;;;;3.40;2.17;;;26.10;66.30;;;;;;5017045;28;20084;-84
2021/06/27 08:23:33;;;;;;;2.63;2.10;;;26.20;67.20;;;;;;5016759;28;20412;-85
2021/06/27 08:25:59;;;;;;;2.42;2.17;;;26.30;67.30;;;;;;5053175;28;20310;-83
2021/06/27 08:28:24;;;;;;;6.40;2.35;;;26.30;65.30;;;;;;5030822;28;20050;-83
2021/06/27 08:30:50;;;;;;;4.55;2.40;;;26.30;67.00;;;;;;5025500;28;20045;-82
2021/06/27 08:33:15;;;;;;;3.08;2.42;;;26.30;64.60;;;;;;5023348;28;20109;-82
2021/06/27 08:35:41;;;;;;;2.55;1.88;;;26.40;67.70;;;;;;5027028;28;20037;-83
2021/06/27 08:38:08;;;;;;;2.67;2.47;;;26.50;64.40;;;;;;5026842;28;20125;-84
2021/06/27 08:40:35;;;;;;;3.20;2.05;;;26.60;65.00;;;;;;5026001;28;20429;-83
2021/06/27 08:43:04;;;;;;;1.40;1.30;;;26.70;64.20;;;;;;5018974;28;20073;-83
2021/06/27 08:45:31;;;;;;;2.47;1.80;;;26.80;62.20;;;;;;5050914;28;20483;-82
2021/06/27 08:47:58;;;;;;;2.17;1.98;;;26.70;61.10;;;;;;5017735;28;20049;-84
2021/06/27 08:50:25;;;;;;;2.33;1.70;;;26.70;61.00;;;;;;5017031;28;20250;-84
2021/06/27 08:52:51;;;;;;;3.25;1.50;;;26.70;62.20;;;;;;5017638;28;20092;-84
2021/06/27 08:55:17;;;;;;;2.08;1.88;;;26.70;60.40;;;;;;5016160;28;20034;-84
2021/06/27 08:57:43;;;;;;;6.75;2.03;;;26.70;61.40;;;;;;5016509;28;20109;-84
2021/06/27 09:00:09;;;;;;;1.60;1.50;;;26.70;63.60;;;;;;5016146;28;20030;-83
2021/06/27 09:02:35;;;;;;;2.00;1.55;;;26.70;61.40;;;;;;5016722;28;20456;-83
2021/06/27 09:05:01;;;;;;;3.05;1.80;;;26.70;62.40;;;;;;5016704;28;20133;-84
2021/06/27 09:07:31;;;;;;;2.35;1.83;;;26.70;60.70;;;;;;5049950;28;20045;-83
2021/06/27 09:10:21;;;;;;;2.63;2.33;;;26.80;61.30;;;;;;5018038;28;20037;-84
2021/06/27 09:12:55;;;;;;;2.45;1.75;;;27.00;62.90;;;;;;5022612;28;20053;-83
2021/06/27 09:15:47;;;;;;;2.83;1.80;;;27.20;60.70;;;;;;5024196;28;20080;-83
2021/06/27 09:18:15;;;;;;;5.28;2.03;;;27.40;63.80;;;;;;5016916;28;20045;-83
2021/06/27 09:20:43;;;;;;;1.92;1.75;;;27.50;58.60;;;;;;5049004;28;20353;-84
2021/06/27 09:23:09;;;;;;;3.00;1.58;;;27.70;58.90;;;;;;5015777;28;20038;-84
2021/06/27 09:25:36;;;;;;;2.85;2.03;;;27.80;61.10;;;;;;5015989;28;20053;-84
2021/06/27 09:28:13;;;;;;;2.13;1.58;;;28.00;61.40;;;;;;5016082;28;20050;-83
2021/06/27 09:30:46;;;;;;;5.75;2.50;;;28.10;58.00;;;;;;5019567;28;20038;-84
2021/06/27 09:33:17;;;;;;;2.88;1.80;;;28.20;60.10;;;;;;5022207;28;20117;-84
2021/06/27 09:36:01;;;;;;;2.40;1.80;;;28.40;63.20;;;;;;5023366;28;20033;-83
2021/06/27 09:38:46;;;;;;;2.30;1.90;;;28.60;60.10;;;;;;5055379;28;20140;-84
2021/06/27 09:41:24;;;;;;;2.22;2.00;;;28.90;60.00;;;;;;5022575;28;20038;-83
2021/06/27 09:43:59;;;;;;;3.28;2.22;;;29.00;58.90;;;;;;5023139;28;20041;-83
2021/06/27 09:46:31;;;;;;;2.70;1.98;;;29.00;55.50;;;;;;5027049;28;20052;-84
2021/06/27 09:49:00;;;;;;;2.33;2.05;;;29.00;57.00;;;;;;5027582;28;20381;-84
2021/06/27 09:51:29;;;;;;;2.53;2.20;;;28.90;54.40;;;;;;5024861;28;20048;-83
2021/06/27 09:53:55;;;;;;;2.05;1.75;;;28.80;56.90;;;;;;5023413;28;20413;-84
2021/06/27 09:56:23;;;;;;;2.00;1.70;;;28.80;55.10;;;;;;5054808;28;20587;-84
2021/06/27 09:59:01;;;;;;;2.10;1.65;;;28.80;54.60;;;;;;5022931;28;20065;-84
2021/06/27 10:01:29;;;;;;;2.03;1.58;;;28.80;54.20;;;;;;5022270;28;20108;-84
2021/06/27 10:03:57;;;;;;;6.05;1.75;;;28.70;54.20;;;;;;5022171;28;20053;-84
2021/06/27 10:06:32;;;;;;;2.30;1.48;;;28.60;53.60;;;;;;5022010;28;20099;-83
2021/06/27 10:09:30;;;;;;;4.20;1.90;;;28.60;55.90;;;;;;5022429;28;20049;-85
2021/06/27 10:12:00;;;;;;;3.55;1.20;;;28.70;56.10;;;;;;5014133;28;20034;-84
2021/06/27 10:14:28;;;;;;;4.78;1.58;;;28.90;54.70;;;;;;5022222;28;20038;-84
2021/06/27 10:16:56;;;;;;;2.03;1.30;;;29.00;53.80;;;;;;5022373;28;20046;-83
2021/06/27 10:19:21;;;;;;;2.13;1.90;;;29.10;51.70;;;;;;5021666;28;20038;-85
2021/06/27 10:21:47;;;;;;;2.20;1.75;;;29.20;53.90;;;;;;5022109;28;20049;-83
2021/06/27 10:24:13;;;;;;;2.03;1.48;;;29.20;52.50;;;;;;5026113;28;20072;-84
2021/06/27 10:26:39;;;;;;;2.90;1.90;;;29.20;55.60;;;;;;5028118;28;20041;-84
2021/06/27 10:29:05;;;;;;;2.00;1.70;;;29.30;52.60;;;;;;5022142;28;20320;-84
2021/06/27 10:31:31;;;;;;;6.32;2.17;;;29.30;54.00;;;;;;5021699;28;20042;-84
2021/06/27 10:33:56;;;;;;;1.85;1.40;;;29.40;53.30;;;;;;5022024;28;20033;-83
2021/06/27 10:36:31;;;;;;;2.08;1.30;;;29.50;54.40;;;;;;5022269;28;20049;-84
2021/06/27 10:38:58;;;;;;;2.55;1.45;;;29.50;52.20;;;;;;5054346;28;20108;-83
2021/06/27 10:41:49;;;;;;;1.58;1.48;;;29.50;50.00;;;;;;5020607;28;20053;-83
2021/06/27 10:44:16;;;;;;;4.97;1.50;;;29.50;51.50;;;;;;5051479;28;20053;-83
2021/06/27 10:46:43;;;;;;;2.15;1.50;;;29.50;51.90;;;;;;5018077;28;20148;-83
2021/06/27 10:49:35;;;;;;;1.83;1.33;;;29.60;51.40;;;;;;5018188;28;20048;-83
2021/06/27 10:52:10;;;;;;;1.65;1.20;;;29.60;51.30;;;;;;5051206;28;20522;-84
2021/06/27 10:54:37;;;;;;;1.95;1.52;;;29.80;50.20;;;;;;5051443;28;20428;-84
2021/06/27 10:57:10;;;;;;;1.77;1.38;;;29.90;48.80;;;;;;5018220;28;20044;-83
2021/06/27 10:59:38;;;;;;;2.28;1.17;;;29.90;50.40;;;;;;5052599;28;20375;-85
2021/06/27 11:02:31;;;;;;;1.60;1.38;;;29.90;47.60;;;;;;5068368;28;20045;-83
2021/06/27 11:05:25;;;;;;;1.98;1.20;;;29.90;49.90;;;;;;5051788;28;20132;-85
2021/06/27 11:07:51;;;;;;;1.40;1.20;;;29.90;48.10;;;;;;5018731;28;20045;-84
2021/06/27 11:10:20;;;;;;;3.72;1.33;;;29.80;48.70;;;;;;5017809;28;20049;-84
2021/06/27 11:12:57;;;;;;;1.65;1.40;;;29.70;51.10;;;;;;5050724;28;20038;-83
2021/06/27 11:15:24;;;;;;;1.55;1.23;;;29.80;51.50;;;;;;5055858;28;20034;-84
2021/06/27 11:17:51;;;;;;;2.60;1.40;;;29.70;49.60;;;;;;5030262;28;20125;-83
2021/06/27 11:20:17;;;;;;;2.13;1.13;;;29.70;50.40;;;;;;5018262;28;20065;-83
2021/06/27 11:22:47;;;;;;;1.55;1.45;;;29.90;47.90;;;;;;5017909;28;20367;-84
2021/06/27 11:25:34;;;;;;;1.92;1.50;;;29.90;49.90;;;;;;5018105;28;20040;-84
2021/06/27 11:28:22;;;;;;;1.58;1.30;;;30.00;51.10;;;;;;5011657;28;20052;-84
2021/06/27 11:31:22;;;;;;;2.65;1.42;;;30.10;51.50;;;;;;5020673;28;20030;-85
2021/06/27 11:34:20;;;;;;;1.17;0.95;;;30.00;48.30;;;;;;5020332;28;20446;-85
2021/06/27 11:36:47;;;;;;;2.78;1.58;;;29.70;48.50;;;;;;5054304;28;20038;-85
2021/06/27 11:39:42;;;;;;;1.58;1.13;;;29.70;48.50;;;;;;5019795;28;20042;-85
2021/06/27 11:42:29;;;;;;;2.00;1.15;;;29.60;48.60;;;;;;5020052;28;20041;-84
2021/06/27 11:45:04;;;;;;;2.22;1.27;;;29.70;48.90;;;;;;5053204;28;20046;-85
2021/06/27 11:47:30;;;;;;;1.45;1.05;;;29.80;51.00;;;;;;5050654;28;20384;-84
2021/06/27 11:49:56;;;;;;;1.48;1.25;;;30.00;47.60;;;;;;5051960;28;20057;-85
2021/06/27 11:52:21;;;;;;;2.10;1.20;;;30.20;51.00;;;;;;5023437;28;20044;-85
2021/06/27 11:54:48;;;;;;;1.55;1.20;;;30.50;50.80;;;;;;5033023;28;20045;-85
2021/06/27 11:57:14;;;;;;;2.90;1.63;;;30.70;51.50;;;;;;5021851;28;20106;-84
2021/06/27 11:59:51;;;;;;;1.20;1.00;;;30.80;50.70;;;;;;5017814;28;20448;-85
2021/06/27 12:02:20;;;;;;;1.67;0.98;;;31.00;48.10;;;;;;5017528;28;20048;-84
2021/06/27 12:04:50;;;;;;;1.63;1.17;;;31.10;45.50;;;;;;5017632;28;20045;-85
2021/06/27 12:07:39;;;;;;;1.38;1.25;;;31.00;44.00;;;;;;5017435;28;20045;-84
2021/06/27 12:10:20;;;;;;;2.13;1.08;;;31.00;48.60;;;;;;5017807;28;20042;-85
2021/06/27 12:12:51;;;;;;;1.25;1.05;;;30.90;45.80;;;;;;5049449;28;20515;-85
2021/06/27 12:15:22;;;;;;;1.40;1.23;;;30.90;47.60;;;;;;5017336;28;20029;-85
2021/06/27 12:18:17;;;;;;;1.27;1.07;;;30.90;45.70;;;;;;5017293;28;20045;-84
2021/06/27 12:20:48;;;;;;;3.22;1.23;;;30.90;45.20;;;;;;5016257;28;20692;-85
2021/06/27 12:23:32;;;;;;;1.83;1.02;;;30.90;45.30;;;;;;5017246;28;20060;-85
2021/06/27 12:26:01;;;;;;;2.45;1.30;;;30.70;43.80;;;;;;5017336;28;20049;-85
2021/06/27 12:28:50;;;;;;;1.45;1.00;;;30.60;46.20;;;;;;5017647;28;20046;-84
2021/06/27 12:31:24;;;;;;;0.80;0.73;;;30.70;45.40;;;;;;5023773;28;20044;-85
2021/06/27 12:33:54;;;;;;;1.35;1.20;;;30.80;44.00;;;;;;5018360;28;20317;-84
2021/06/27 12:36:38;;;;;;;1.42;1.10;;;30.80;45.90;;;;;;5017394;28;20069;-86
2021/06/27 12:39:21;;;;;;;1.10;0.95;;;30.80;45.30;;;;;;5017610;28;20129;-85
2021/06/27 12:41:47;;;;;;;1.15;0.90;;;30.80;43.80;;;;;;5016774;28;20599;-84
2021/06/27 12:44:15;;;;;;;2.28;1.00;;;30.70;46.70;;;;;;5016148;28;20132;-87
2021/06/27 12:46:51;;;;;;;0.85;0.75;;;30.70;45.80;;;;;;5016586;28;20635;-84
2021/06/27 12:49:24;;;;;;;1.73;1.13;;;30.70;44.10;;;;;;5016772;28;20108;-84
2021/06/27 12:52:07;;;;;;;1.60;1.10;;;30.60;44.80;;;;;;5049984;28;20457;-85